Albuquerque International Sunport Airport
KABQ : now visible

Airfield :











YOU CAN JOIN US ON...

 
LOGIN :

Register | Disclaimer

   EN    FR    IT 

 









Legend :    VFR   Marginal VFR   IFR   Intensive IFR   Very Intensive IFR
Visi :
Ceiling :
>= 8 km
>= 3000ft
5 to 8 km
1000 to 3000 ft
1500m to 5 km
500 to 1000 ft
800 to 1500m
200 to 500 ft
< 800m
< 200 ft
Symbols :   Thunderstorms  Fog  Heavy snow  Heavy precipitations  Wind > 20 kt







- Airport Elevation : 5355 ft
- IATA code : ABQ


KABQ - Albuquerque International Sunport

CURRENT METAR :
  • 261352Z VRB03KT 10SM CLR 17/M03 A3001 RMK AO2 SLP084 T01671033

EXPIRED METARs :
  • 261252Z 02005KT 10SM FEW140 13/M05 A3001 RMK AO2 SLP088 T01331050
  • 261152Z 36004KT 10SM FEW140 13/M06 A2999 RMK AO2 SLP083 T01281061 10172 20122 55001

TAF KABQ
Valid from the 26 at 12:00 until the 27 at 12:00 UTC


261126Z 2612/2712 14006KT P6SM SCT150
FM261500 18012G20KT P6SM SCT150
FM261900 19022G32KT P6SM SCT130
FM262100 20028G38KT P6SM VCSH BKN120
FM270200 23012G20KT P6SM SCT120
KZAB FIR / North America



MET'MAP, your aeronautical weather chart ! - Copyright ORBIFLY December 2007 - Disclaimer

ORBIFLY MET'MAP TEAM :

Programming & Development : Alexandra Zaïnal
Concept & Development : Baudouin d'Aumeries
Co-Development & Prog : Marc-Olivier Méhu
Technical & hardware support : Manuel Goepfert

Contact : metmap@orbifly.com




SOURCES & CREDITS :

   NOAA       Earth
Advisory